sensor_id;sensor_type;location;lat;lon;timestamp;temperature;humidity
73576;DHT22;61859;49.204;8.140;2024-02-23T00:02:15;7.90;86.20
73576;DHT22;61859;49.204;8.140;2024-02-23T00:04:41;7.90;85.50
73576;DHT22;61859;49.204;8.140;2024-02-23T00:07:07;7.90;85.80
73576;DHT22;61859;49.204;8.140;2024-02-23T00:09:33;7.90;85.10
73576;DHT22;61859;49.204;8.140;2024-02-23T00:11:59;7.90;85.10
73576;DHT22;61859;49.204;8.140;2024-02-23T00:14:24;7.90;85.00
73576;DHT22;61859;49.204;8.140;2024-02-23T00:16:51;7.80;84.70
73576;DHT22;61859;49.204;8.140;2024-02-23T00:19:16;7.90;83.80
73576;DHT22;61859;49.204;8.140;2024-02-23T00:21:44;7.90;84.50
73576;DHT22;61859;49.204;8.140;2024-02-23T00:24:15;7.70;83.30
73576;DHT22;61859;49.204;8.140;2024-02-23T00:26:42;7.90;83.40
73576;DHT22;61859;49.204;8.140;2024-02-23T00:29:07;7.70;84.20
73576;DHT22;61859;49.204;8.140;2024-02-23T00:31:33;7.60;84.30
73576;DHT22;61859;49.204;8.140;2024-02-23T00:33:59;7.50;83.40
73576;DHT22;61859;49.204;8.140;2024-02-23T00:36:24;7.60;82.80
73576;DHT22;61859;49.204;8.140;2024-02-23T00:38:50;7.60;82.70
73576;DHT22;61859;49.204;8.140;2024-02-23T00:41:15;7.70;83.20
73576;DHT22;61859;49.204;8.140;2024-02-23T00:43:41;7.60;82.20
73576;DHT22;61859;49.204;8.140;2024-02-23T00:46:08;7.60;81.50
73576;DHT22;61859;49.204;8.140;2024-02-23T00:48:34;7.60;81.30
73576;DHT22;61859;49.204;8.140;2024-02-23T00:51:00;7.60;81.40
73576;DHT22;61859;49.204;8.140;2024-02-23T00:53:26;7.70;81.30
73576;DHT22;61859;49.204;8.140;2024-02-23T00:55:52;7.60;80.70
73576;DHT22;61859;49.204;8.140;2024-02-23T00:58:17;7.70;81.00
73576;DHT22;61859;49.204;8.140;2024-02-23T01:00:44;7.40;81.60
73576;DHT22;61859;49.204;8.140;2024-02-23T01:03:09;7.50;82.10
73576;DHT22;61859;49.204;8.140;2024-02-23T01:05:35;7.50;82.10
73576;DHT22;61859;49.204;8.140;2024-02-23T01:08:01;7.40;81.70
73576;DHT22;61859;49.204;8.140;2024-02-23T01:10:26;7.50;81.20
73576;DHT22;61859;49.204;8.140;2024-02-23T01:12:52;7.60;81.80
73576;DHT22;61859;49.204;8.140;2024-02-23T01:15:18;7.60;81.50
73576;DHT22;61859;49.204;8.140;2024-02-23T01:17:43;7.50;81.40
73576;DHT22;61859;49.204;8.140;2024-02-23T01:20:09;7.60;81.50
73576;DHT22;61859;49.204;8.140;2024-02-23T01:22:35;7.60;81.40
73576;DHT22;61859;49.204;8.140;2024-02-23T01:25:00;7.40;80.90
73576;DHT22;61859;49.204;8.140;2024-02-23T01:27:26;7.60;80.70
73576;DHT22;61859;49.204;8.140;2024-02-23T01:29:52;7.40;80.90
73576;DHT22;61859;49.204;8.140;2024-02-23T01:32:17;7.60;80.90
73576;DHT22;61859;49.204;8.140;2024-02-23T01:34:43;7.50;81.40
73576;DHT22;61859;49.204;8.140;2024-02-23T01:37:08;7.40;81.60
73576;DHT22;61859;49.204;8.140;2024-02-23T01:39:34;7.40;81.20
73576;DHT22;61859;49.204;8.140;2024-02-23T01:41:59;7.30;81.80
73576;DHT22;61859;49.204;8.140;2024-02-23T01:44:25;7.40;80.80
73576;DHT22;61859;49.204;8.140;2024-02-23T01:46:51;7.40;80.10
73576;DHT22;61859;49.204;8.140;2024-02-23T01:49:17;7.30;79.90
73576;DHT22;61859;49.204;8.140;2024-02-23T01:51:43;7.50;79.60
73576;DHT22;61859;49.204;8.140;2024-02-23T01:54:09;7.50;79.90
73576;DHT22;61859;49.204;8.140;2024-02-23T01:56:35;7.40;79.60
73576;DHT22;61859;49.204;8.140;2024-02-23T01:59:02;7.60;79.80
73576;DHT22;61859;49.204;8.140;2024-02-23T02:01:30;7.60;79.90
73576;DHT22;61859;49.204;8.140;2024-02-23T02:03:56;7.50;80.10
73576;DHT22;61859;49.204;8.140;2024-02-23T02:06:22;7.50;81.50
73576;DHT22;61859;49.204;8.140;2024-02-23T02:08:48;7.30;82.50
73576;DHT22;61859;49.204;8.140;2024-02-23T02:11:14;7.20;82.40
73576;DHT22;61859;49.204;8.140;2024-02-23T02:13:40;7.30;82.80
73576;DHT22;61859;49.204;8.140;2024-02-23T02:16:06;7.00;82.40
73576;DHT22;61859;49.204;8.140;2024-02-23T02:18:32;7.10;82.40
73576;DHT22;61859;49.204;8.140;2024-02-23T02:20:57;7.00;81.50
73576;DHT22;61859;49.204;8.140;2024-02-23T02:23:24;7.00;82.00
73576;DHT22;61859;49.204;8.140;2024-02-23T02:25:56;7.10;82.40
73576;DHT22;61859;49.204;8.140;2024-02-23T02:28:23;7.10;81.90
73576;DHT22;61859;49.204;8.140;2024-02-23T02:30:50;7.00;81.50
73576;DHT22;61859;49.204;8.140;2024-02-23T02:33:16;6.90;81.60
73576;DHT22;61859;49.204;8.140;2024-02-23T02:35:41;7.10;81.80
73576;DHT22;61859;49.204;8.140;2024-02-23T02:38:07;7.10;82.50
73576;DHT22;61859;49.204;8.140;2024-02-23T02:40:33;7.00;82.80
73576;DHT22;61859;49.204;8.140;2024-02-23T02:42:58;7.00;82.70
73576;DHT22;61859;49.204;8.140;2024-02-23T02:45:24;6.90;82.20
73576;DHT22;61859;49.204;8.140;2024-02-23T02:47:49;6.90;82.30
73576;DHT22;61859;49.204;8.140;2024-02-23T02:50:15;7.00;81.20
73576;DHT22;61859;49.204;8.140;2024-02-23T02:52:41;6.90;81.30
73576;DHT22;61859;49.204;8.140;2024-02-23T02:55:07;7.00;81.40
73576;DHT22;61859;49.204;8.140;2024-02-23T02:57:33;6.90;81.40
73576;DHT22;61859;49.204;8.140;2024-02-23T03:00:01;7.00;81.70
73576;DHT22;61859;49.204;8.140;2024-02-23T03:02:30;7.00;81.30
73576;DHT22;61859;49.204;8.140;2024-02-23T03:04:56;6.80;81.30
73576;DHT22;61859;49.204;8.140;2024-02-23T03:07:21;6.80;81.10
73576;DHT22;61859;49.204;8.140;2024-02-23T03:09:47;6.80;80.70
73576;DHT22;61859;49.204;8.140;2024-02-23T03:12:14;6.80;81.30
73576;DHT22;61859;49.204;8.140;2024-02-23T03:14:39;6.70;81.30
73576;DHT22;61859;49.204;8.140;2024-02-23T03:17:07;6.80;81.90
73576;DHT22;61859;49.204;8.140;2024-02-23T03:19:32;6.50;82.40
73576;DHT22;61859;49.204;8.140;2024-02-23T03:21:58;6.60;82.10
73576;DHT22;61859;49.204;8.140;2024-02-23T03:24:24;6.70;82.20
73576;DHT22;61859;49.204;8.140;2024-02-23T03:26:49;6.40;82.40
73576;DHT22;61859;49.204;8.140;2024-02-23T03:29:15;6.70;82.40
73576;DHT22;61859;49.204;8.140;2024-02-23T03:31:41;6.60;82.70
73576;DHT22;61859;49.204;8.140;2024-02-23T03:34:07;6.50;83.00
73576;DHT22;61859;49.204;8.140;2024-02-23T03:36:33;6.40;83.20
73576;DHT22;61859;49.204;8.140;2024-02-23T03:38:59;6.20;83.90
73576;DHT22;61859;49.204;8.140;2024-02-23T03:41:24;6.20;84.60
73576;DHT22;61859;49.204;8.140;2024-02-23T03:43:50;6.10;85.30
73576;DHT22;61859;49.204;8.140;2024-02-23T03:46:15;6.10;85.50
73576;DHT22;61859;49.204;8.140;2024-02-23T03:48:42;6.00;85.10
73576;DHT22;61859;49.204;8.140;2024-02-23T03:51:08;6.10;85.40
73576;DHT22;61859;49.204;8.140;2024-02-23T03:53:34;6.00;85.00
73576;DHT22;61859;49.204;8.140;2024-02-23T03:56:00;6.10;85.00
73576;DHT22;61859;49.204;8.140;2024-02-23T03:58:25;6.10;84.90
73576;DHT22;61859;49.204;8.140;2024-02-23T04:00:51;6.00;85.00
73576;DHT22;61859;49.204;8.140;2024-02-23T04:03:17;6.20;84.90
73576;DHT22;61859;49.204;8.140;2024-02-23T04:05:43;6.00;85.20
73576;DHT22;61859;49.204;8.140;2024-02-23T04:08:08;6.10;85.10
73576;DHT22;61859;49.204;8.140;2024-02-23T04:10:34;6.00;85.20
73576;DHT22;61859;49.204;8.140;2024-02-23T04:13:00;6.00;84.90
73576;DHT22;61859;49.204;8.140;2024-02-23T04:15:26;6.10;84.50
73576;DHT22;61859;49.204;8.140;2024-02-23T04:17:52;6.00;84.40
73576;DHT22;61859;49.204;8.140;2024-02-23T04:20:17;6.00;84.80
73576;DHT22;61859;49.204;8.140;2024-02-23T04:22:43;6.00;85.00
73576;DHT22;61859;49.204;8.140;2024-02-23T04:25:09;6.00;85.40
73576;DHT22;61859;49.204;8.140;2024-02-23T04:27:35;5.90;85.30
73576;DHT22;61859;49.204;8.140;2024-02-23T04:30:01;5.80;85.50
73576;DHT22;61859;49.204;8.140;2024-02-23T04:32:26;5.90;85.30
73576;DHT22;61859;49.204;8.140;2024-02-23T04:34:52;5.90;85.40
73576;DHT22;61859;49.204;8.140;2024-02-23T04:37:17;5.80;85.70
73576;DHT22;61859;49.204;8.140;2024-02-23T04:39:46;5.90;85.70
73576;DHT22;61859;49.204;8.140;2024-02-23T04:42:11;5.80;85.60
73576;DHT22;61859;49.204;8.140;2024-02-23T04:44:37;5.80;85.80
73576;DHT22;61859;49.204;8.140;2024-02-23T04:47:03;5.70;85.90
73576;DHT22;61859;49.204;8.140;2024-02-23T04:49:28;5.60;86.10
73576;DHT22;61859;49.204;8.140;2024-02-23T04:51:54;5.70;86.40
73576;DHT22;61859;49.204;8.140;2024-02-23T04:54:20;5.80;86.40
73576;DHT22;61859;49.204;8.140;2024-02-23T04:56:47;5.70;86.50
73576;DHT22;61859;49.204;8.140;2024-02-23T04:59:13;5.80;86.20
73576;DHT22;61859;49.204;8.140;2024-02-23T05:01:39;5.60;86.00
73576;DHT22;61859;49.204;8.140;2024-02-23T05:04:05;5.70;86.10
73576;DHT22;61859;49.204;8.140;2024-02-23T05:06:30;5.70;86.20
73576;DHT22;61859;49.204;8.140;2024-02-23T05:08:56;5.80;85.90
73576;DHT22;61859;49.204;8.140;2024-02-23T05:11:22;5.70;86.20
73576;DHT22;61859;49.204;8.140;2024-02-23T05:13:47;5.70;85.80
73576;DHT22;61859;49.204;8.140;2024-02-23T05:16:16;5.70;85.80
73576;DHT22;61859;49.204;8.140;2024-02-23T05:18:43;5.90;86.00
73576;DHT22;61859;49.204;8.140;2024-02-23T05:21:09;5.70;85.90
73576;DHT22;61859;49.204;8.140;2024-02-23T05:23:35;5.60;86.30
73576;DHT22;61859;49.204;8.140;2024-02-23T05:26:00;5.70;86.30
73576;DHT22;61859;49.204;8.140;2024-02-23T05:28:26;5.80;87.10
73576;DHT22;61859;49.204;8.140;2024-02-23T05:30:54;5.50;87.30
73576;DHT22;61859;49.204;8.140;2024-02-23T05:33:19;5.50;87.90
73576;DHT22;61859;49.204;8.140;2024-02-23T05:35:46;5.40;88.60
73576;DHT22;61859;49.204;8.140;2024-02-23T05:38:14;5.40;88.70
73576;DHT22;61859;49.204;8.140;2024-02-23T05:40:40;5.40;88.40
73576;DHT22;61859;49.204;8.140;2024-02-23T05:43:05;5.40;88.00
73576;DHT22;61859;49.204;8.140;2024-02-23T05:45:31;5.30;88.00
73576;DHT22;61859;49.204;8.140;2024-02-23T05:47:57;5.20;87.50
73576;DHT22;61859;49.204;8.140;2024-02-23T05:50:22;5.20;87.00
73576;DHT22;61859;49.204;8.140;2024-02-23T05:52:48;5.20;87.00
73576;DHT22;61859;49.204;8.140;2024-02-23T05:55:14;5.30;87.50
73576;DHT22;61859;49.204;8.140;2024-02-23T05:57:40;5.30;88.20
73576;DHT22;61859;49.204;8.140;2024-02-23T06:00:07;5.20;88.60
73576;DHT22;61859;49.204;8.140;2024-02-23T06:02:33;5.40;88.80
73576;DHT22;61859;49.204;8.140;2024-02-23T06:04:58;5.30;88.90
73576;DHT22;61859;49.204;8.140;2024-02-23T06:07:24;5.30;88.90
73576;DHT22;61859;49.204;8.140;2024-02-23T06:09:58;5.10;88.70
73576;DHT22;61859;49.204;8.140;2024-02-23T06:12:24;5.00;88.50
73576;DHT22;61859;49.204;8.140;2024-02-23T06:14:51;5.10;88.30
73576;DHT22;61859;49.204;8.140;2024-02-23T06:17:17;5.10;88.00
73576;DHT22;61859;49.204;8.140;2024-02-23T06:19:43;5.30;88.20
73576;DHT22;61859;49.204;8.140;2024-02-23T06:22:09;5.20;88.20
73576;DHT22;61859;49.204;8.140;2024-02-23T06:24:36;5.10;88.40
73576;DHT22;61859;49.204;8.140;2024-02-23T06:27:02;5.00;88.60
73576;DHT22;61859;49.204;8.140;2024-02-23T06:29:29;5.10;88.80
73576;DHT22;61859;49.204;8.140;2024-02-23T06:31:55;4.90;88.80
73576;DHT22;61859;49.204;8.140;2024-02-23T06:34:20;5.00;88.90
73576;DHT22;61859;49.204;8.140;2024-02-23T06:36:46;4.70;88.80
73576;DHT22;61859;49.204;8.140;2024-02-23T06:39:12;4.80;88.90
73576;DHT22;61859;49.204;8.140;2024-02-23T06:41:40;4.60;89.20
73576;DHT22;61859;49.204;8.140;2024-02-23T06:44:06;4.80;89.00
73576;DHT22;61859;49.204;8.140;2024-02-23T06:46:32;4.70;89.50
73576;DHT22;61859;49.204;8.140;2024-02-23T06:48:57;4.80;89.20
73576;DHT22;61859;49.204;8.140;2024-02-23T06:51:23;4.90;89.00
73576;DHT22;61859;49.204;8.140;2024-02-23T06:53:48;4.90;89.30
73576;DHT22;61859;49.204;8.140;2024-02-23T06:56:14;4.80;89.30
73576;DHT22;61859;49.204;8.140;2024-02-23T06:58:40;5.00;89.00
73576;DHT22;61859;49.204;8.140;2024-02-23T07:01:05;4.80;89.30
73576;DHT22;61859;49.204;8.140;2024-02-23T07:03:36;4.90;88.90
73576;DHT22;61859;49.204;8.140;2024-02-23T07:06:02;4.70;89.00
73576;DHT22;61859;49.204;8.140;2024-02-23T07:08:28;4.80;88.80
73576;DHT22;61859;49.204;8.140;2024-02-23T07:10:55;4.60;89.00
73576;DHT22;61859;49.204;8.140;2024-02-23T07:13:20;4.60;89.10
73576;DHT22;61859;49.204;8.140;2024-02-23T07:15:46;4.50;89.20
73576;DHT22;61859;49.204;8.140;2024-02-23T07:18:12;4.70;88.90
73576;DHT22;61859;49.204;8.140;2024-02-23T07:20:37;4.70;88.80
73576;DHT22;61859;49.204;8.140;2024-02-23T07:23:04;4.90;88.70
73576;DHT22;61859;49.204;8.140;2024-02-23T07:25:30;5.00;88.80
73576;DHT22;61859;49.204;8.140;2024-02-23T07:27:55;5.00;88.30
73576;DHT22;61859;49.204;8.140;2024-02-23T07:30:21;4.90;88.10
73576;DHT22;61859;49.204;8.140;2024-02-23T07:32:47;5.10;87.90
73576;DHT22;61859;49.204;8.140;2024-02-23T07:35:12;5.20;87.20
73576;DHT22;61859;49.204;8.140;2024-02-23T07:37:38;5.20;87.10
73576;DHT22;61859;49.204;8.140;2024-02-23T07:40:04;5.20;86.80
73576;DHT22;61859;49.204;8.140;2024-02-23T07:42:32;5.30;87.10
73576;DHT22;61859;49.204;8.140;2024-02-23T07:44:57;5.20;87.20
73576;DHT22;61859;49.204;8.140;2024-02-23T07:47:24;5.30;87.10
73576;DHT22;61859;49.204;8.140;2024-02-23T07:49:49;5.30;87.00
73576;DHT22;61859;49.204;8.140;2024-02-23T07:52:15;5.50;86.70
73576;DHT22;61859;49.204;8.140;2024-02-23T07:54:41;5.60;87.00
73576;DHT22;61859;49.204;8.140;2024-02-23T07:57:07;5.80;87.20
73576;DHT22;61859;49.204;8.140;2024-02-23T07:59:32;5.50;86.60
73576;DHT22;61859;49.204;8.140;2024-02-23T08:01:58;5.60;86.40
73576;DHT22;61859;49.204;8.140;2024-02-23T08:04:24;5.70;86.10
73576;DHT22;61859;49.204;8.140;2024-02-23T08:06:49;5.90;86.40
73576;DHT22;61859;49.204;8.140;2024-02-23T08:09:16;5.90;85.70
73576;DHT22;61859;49.204;8.140;2024-02-23T08:11:43;6.10;85.80
73576;DHT22;61859;49.204;8.140;2024-02-23T08:14:08;6.00;85.00
73576;DHT22;61859;49.204;8.140;2024-02-23T08:16:34;6.20;84.80
73576;DHT22;61859;49.204;8.140;2024-02-23T08:18:59;6.20;84.80
73576;DHT22;61859;49.204;8.140;2024-02-23T08:21:25;6.20;84.80
73576;DHT22;61859;49.204;8.140;2024-02-23T08:23:52;6.30;85.00
73576;DHT22;61859;49.204;8.140;2024-02-23T08:26:17;6.10;85.50
73576;DHT22;61859;49.204;8.140;2024-02-23T08:28:43;6.30;84.70
73576;DHT22;61859;49.204;8.140;2024-02-23T08:31:08;6.30;84.90
73576;DHT22;61859;49.204;8.140;2024-02-23T08:33:34;6.50;84.60
73576;DHT22;61859;49.204;8.140;2024-02-23T08:36:00;6.50;84.50
73576;DHT22;61859;49.204;8.140;2024-02-23T08:38:25;6.50;84.80
73576;DHT22;61859;49.204;8.140;2024-02-23T08:40:51;6.50;84.50
73576;DHT22;61859;49.204;8.140;2024-02-23T08:43:16;6.40;84.60
73576;DHT22;61859;49.204;8.140;2024-02-23T08:45:42;6.70;84.20
73576;DHT22;61859;49.204;8.140;2024-02-23T08:48:08;6.80;84.00
73576;DHT22;61859;49.204;8.140;2024-02-23T08:50:34;7.00;83.70
73576;DHT22;61859;49.204;8.140;2024-02-23T08:52:59;7.10;82.90
73576;DHT22;61859;49.204;8.140;2024-02-23T08:55:25;7.90;82.10
73576;DHT22;61859;49.204;8.140;2024-02-23T08:57:50;8.40;79.40
73576;DHT22;61859;49.204;8.140;2024-02-23T09:00:16;8.80;77.50
73576;DHT22;61859;49.204;8.140;2024-02-23T09:02:42;8.70;77.30
73576;DHT22;61859;49.204;8.140;2024-02-23T09:05:08;8.30;77.80
73576;DHT22;61859;49.204;8.140;2024-02-23T09:07:34;8.10;78.50
73576;DHT22;61859;49.204;8.140;2024-02-23T09:10:01;8.10;78.40
73576;DHT22;61859;49.204;8.140;2024-02-23T09:12:26;7.80;78.70
73576;DHT22;61859;49.204;8.140;2024-02-23T09:14:52;7.70;80.50
73576;DHT22;61859;49.204;8.140;2024-02-23T09:17:18;7.40;81.40
73576;DHT22;61859;49.204;8.140;2024-02-23T09:19:45;7.20;82.50
73576;DHT22;61859;49.204;8.140;2024-02-23T09:22:11;6.90;83.60
73576;DHT22;61859;49.204;8.140;2024-02-23T09:24:40;6.90;83.60
73576;DHT22;61859;49.204;8.140;2024-02-23T09:27:06;6.90;83.80
73576;DHT22;61859;49.204;8.140;2024-02-23T09:29:32;7.20;83.80
73576;DHT22;61859;49.204;8.140;2024-02-23T09:31:58;7.10;83.30
73576;DHT22;61859;49.204;8.140;2024-02-23T09:34:24;7.30;83.20
73576;DHT22;61859;49.204;8.140;2024-02-23T09:36:50;7.60;83.00
73576;DHT22;61859;49.204;8.140;2024-02-23T09:39:16;8.60;80.70
73576;DHT22;61859;49.204;8.140;2024-02-23T09:41:42;9.80;75.00
73576;DHT22;61859;49.204;8.140;2024-02-23T09:44:08;10.20;72.50
73576;DHT22;61859;49.204;8.140;2024-02-23T09:46:36;10.40;72.60
73576;DHT22;61859;49.204;8.140;2024-02-23T09:49:03;11.00;70.80
73576;DHT22;61859;49.204;8.140;2024-02-23T09:51:31;11.30;69.90
73576;DHT22;61859;49.204;8.140;2024-02-23T09:53:59;11.60;69.10
73576;DHT22;61859;49.204;8.140;2024-02-23T09:56:27;11.90;67.90
73576;DHT22;61859;49.204;8.140;2024-02-23T09:58:56;12.40;66.30
73576;DHT22;61859;49.204;8.140;2024-02-23T10:01:27;12.10;67.30
73576;DHT22;61859;49.204;8.140;2024-02-23T10:04:00;12.80;64.50
73576;DHT22;61859;49.204;8.140;2024-02-23T10:06:26;13.00;61.50
73576;DHT22;61859;49.204;8.140;2024-02-23T10:08:51;11.90;65.40
73576;DHT22;61859;49.204;8.140;2024-02-23T10:11:23;11.20;66.80
73576;DHT22;61859;49.204;8.140;2024-02-23T10:13:50;10.60;67.50
73576;DHT22;61859;49.204;8.140;2024-02-23T10:16:20;10.30;69.50
73576;DHT22;61859;49.204;8.140;2024-02-23T10:18:47;9.90;69.20
73576;DHT22;61859;49.204;8.140;2024-02-23T10:21:14;9.70;71.70
73576;DHT22;61859;49.204;8.140;2024-02-23T10:23:40;9.70;72.40
73576;DHT22;61859;49.204;8.140;2024-02-23T10:26:07;10.20;71.70
73576;DHT22;61859;49.204;8.140;2024-02-23T10:28:34;10.20;70.20
73576;DHT22;61859;49.204;8.140;2024-02-23T10:31:00;10.30;69.50
73576;DHT22;61859;49.204;8.140;2024-02-23T10:33:27;10.30;69.70
73576;DHT22;61859;49.204;8.140;2024-02-23T10:35:56;10.00;70.30
73576;DHT22;61859;49.204;8.140;2024-02-23T10:38:23;10.10;71.00
73576;DHT22;61859;49.204;8.140;2024-02-23T10:40:50;10.30;70.30
73576;DHT22;61859;49.204;8.140;2024-02-23T10:43:19;10.60;69.00
73576;DHT22;61859;49.204;8.140;2024-02-23T10:45:46;11.10;68.50
73576;DHT22;61859;49.204;8.140;2024-02-23T10:48:12;12.90;64.00
73576;DHT22;61859;49.204;8.140;2024-02-23T10:50:40;13.70;61.20
73576;DHT22;61859;49.204;8.140;2024-02-23T10:53:07;14.00;59.90
73576;DHT22;61859;49.204;8.140;2024-02-23T10:55:37;13.90;60.10
73576;DHT22;61859;49.204;8.140;2024-02-23T10:58:09;13.30;60.70
73576;DHT22;61859;49.204;8.140;2024-02-23T11:00:37;12.30;63.20
73576;DHT22;61859;49.204;8.140;2024-02-23T11:03:03;11.70;65.10
73576;DHT22;61859;49.204;8.140;2024-02-23T11:05:30;11.30;65.40
73576;DHT22;61859;49.204;8.140;2024-02-23T11:07:56;11.00;67.50
73576;DHT22;61859;49.204;8.140;2024-02-23T11:10:22;10.90;67.60
73576;DHT22;61859;49.204;8.140;2024-02-23T11:13:00;10.90;68.70
73576;DHT22;61859;49.204;8.140;2024-02-23T11:15:30;10.90;67.90
73576;DHT22;61859;49.204;8.140;2024-02-23T11:17:58;10.90;68.30
73576;DHT22;61859;49.204;8.140;2024-02-23T11:20:34;11.00;68.00
73576;DHT22;61859;49.204;8.140;2024-02-23T11:23:00;10.90;67.40
73576;DHT22;61859;49.204;8.140;2024-02-23T11:25:29;10.70;67.30
73576;DHT22;61859;49.204;8.140;2024-02-23T11:27:55;10.50;68.20
73576;DHT22;61859;49.204;8.140;2024-02-23T11:30:20;10.20;67.90
73576;DHT22;61859;49.204;8.140;2024-02-23T11:32:47;9.90;68.90
73576;DHT22;61859;49.204;8.140;2024-02-23T11:35:15;9.70;70.00
73576;DHT22;61859;49.204;8.140;2024-02-23T11:38:07;9.70;70.40
73576;DHT22;61859;49.204;8.140;2024-02-23T11:40:33;9.70;70.30
73576;DHT22;61859;49.204;8.140;2024-02-23T11:43:00;9.80;70.50
73576;DHT22;61859;49.204;8.140;2024-02-23T11:45:28;9.80;71.60
73576;DHT22;61859;49.204;8.140;2024-02-23T11:47:54;9.80;70.70
73576;DHT22;61859;49.204;8.140;2024-02-23T11:50:19;10.00;71.10
73576;DHT22;61859;49.204;8.140;2024-02-23T11:52:46;10.10;71.10
73576;DHT22;61859;49.204;8.140;2024-02-23T11:55:13;10.30;70.10
73576;DHT22;61859;49.204;8.140;2024-02-23T11:57:44;10.40;69.40
73576;DHT22;61859;49.204;8.140;2024-02-23T12:00:10;10.40;69.30
73576;DHT22;61859;49.204;8.140;2024-02-23T12:02:36;10.30;69.70
73576;DHT22;61859;49.204;8.140;2024-02-23T12:05:02;10.10;69.90
73576;DHT22;61859;49.204;8.140;2024-02-23T12:07:32;10.10;70.60
73576;DHT22;61859;49.204;8.140;2024-02-23T12:09:58;10.20;71.20
73576;DHT22;61859;49.204;8.140;2024-02-23T12:12:25;10.70;70.70
73576;DHT22;61859;49.204;8.140;2024-02-23T12:14:51;10.90;69.70
73576;DHT22;61859;49.204;8.140;2024-02-23T12:17:17;11.30;69.10
73576;DHT22;61859;49.204;8.140;2024-02-23T12:43:30;12.40;65.80
73576;DHT22;61859;49.204;8.140;2024-02-23T12:45:57;12.00;66.00
73576;DHT22;61859;49.204;8.140;2024-02-23T12:48:23;11.70;64.90
73576;DHT22;61859;49.204;8.140;2024-02-23T12:50:49;11.50;65.70
73576;DHT22;61859;49.204;8.140;2024-02-23T12:53:39;11.90;66.80
73576;DHT22;61859;49.204;8.140;2024-02-23T12:56:12;12.90;65.30
73576;DHT22;61859;49.204;8.140;2024-02-23T12:58:40;13.10;63.60
73576;DHT22;61859;49.204;8.140;2024-02-23T13:01:05;12.80;63.00
73576;DHT22;61859;49.204;8.140;2024-02-23T13:03:32;12.30;65.40
73576;DHT22;61859;49.204;8.140;2024-02-23T13:05:58;11.50;66.10
73576;DHT22;61859;49.204;8.140;2024-02-23T13:08:25;11.10;67.20
73576;DHT22;61859;49.204;8.140;2024-02-23T13:10:51;11.00;67.20
73576;DHT22;61859;49.204;8.140;2024-02-23T13:13:18;11.00;67.50
73576;DHT22;61859;49.204;8.140;2024-02-23T13:15:44;10.80;67.40
73576;DHT22;61859;49.204;8.140;2024-02-23T13:18:10;10.80;66.00
73576;DHT22;61859;49.204;8.140;2024-02-23T13:20:37;10.80;66.40
73576;DHT22;61859;49.204;8.140;2024-02-23T13:23:02;10.80;66.50
73576;DHT22;61859;49.204;8.140;2024-02-23T13:25:28;10.90;66.40
73576;DHT22;61859;49.204;8.140;2024-02-23T13:27:54;10.80;66.50
73576;DHT22;61859;49.204;8.140;2024-02-23T13:30:19;10.80;66.60
73576;DHT22;61859;49.204;8.140;2024-02-23T13:32:45;10.80;67.30
73576;DHT22;61859;49.204;8.140;2024-02-23T13:35:11;10.70;67.60
73576;DHT22;61859;49.204;8.140;2024-02-23T13:37:36;10.70;68.20
73576;DHT22;61859;49.204;8.140;2024-02-23T13:40:02;10.60;68.00
73576;DHT22;61859;49.204;8.140;2024-02-23T13:42:30;10.60;67.80
